createdAt,value
2019-03-13T00:01:04.943Z,2.80
2019-03-13T00:03:32.337Z,2.90
2019-03-13T00:05:59.782Z,2.90
2019-03-13T00:08:27.055Z,2.90
2019-03-13T00:10:54.294Z,2.70
2019-03-13T00:13:21.660Z,2.60
2019-03-13T00:15:49.940Z,2.60
2019-03-13T00:18:17.370Z,2.60
2019-03-13T00:20:44.740Z,2.50
2019-03-13T00:23:12.023Z,2.30
2019-03-13T00:25:39.372Z,2.30
2019-03-13T00:28:06.623Z,2.20
2019-03-13T00:30:33.881Z,2.20
2019-03-13T00:33:01.188Z,2.30
2019-03-13T00:35:28.554Z,2.20
2019-03-13T00:37:55.945Z,2.20
2019-03-13T00:40:23.178Z,2.10
2019-03-13T00:42:50.435Z,2.20
2019-03-13T00:45:17.839Z,2.10
2019-03-13T00:47:45.112Z,2.10
2019-03-13T00:50:21.848Z,2.20
2019-03-13T00:52:49.118Z,2.20
2019-03-13T00:55:16.467Z,2.20
2019-03-13T00:57:43.795Z,2.20
2019-03-13T01:00:13.262Z,2.20
2019-03-13T01:02:42.693Z,2.30
2019-03-13T01:05:26.943Z,2.20
2019-03-13T01:07:54.299Z,2.20
2019-03-13T01:10:21.550Z,2.20
2019-03-13T01:12:48.819Z,2.30
2019-03-13T01:15:16.154Z,2.40
2019-03-13T01:17:43.514Z,2.40
2019-03-13T01:20:11.147Z,2.50
2019-03-13T01:22:38.681Z,2.60
2019-03-13T01:25:06.602Z,2.60
2019-03-13T01:27:33.979Z,2.60
2019-03-13T01:30:01.328Z,2.60
2019-03-13T01:32:46.582Z,2.60
2019-03-13T01:35:32.836Z,2.70
2019-03-13T01:38:00.141Z,2.60
2019-03-13T01:40:27.375Z,2.50
2019-03-13T01:42:54.625Z,2.50
2019-03-13T01:45:21.883Z,2.70
2019-03-13T01:47:49.339Z,2.70
2019-03-13T01:50:16.602Z,2.70
2019-03-13T01:52:43.864Z,2.80
2019-03-13T01:55:11.199Z,2.70
2019-03-13T01:57:38.448Z,2.80
2019-03-13T02:00:07.239Z,2.90
2019-03-13T02:02:34.499Z,2.80
2019-03-13T02:05:03.275Z,2.80
2019-03-13T02:07:31.042Z,2.90
2019-03-13T02:09:58.380Z,2.90
2019-03-13T02:12:25.738Z,3.00
2019-03-13T02:14:53.107Z,3.00
2019-03-13T02:17:20.481Z,3.00
2019-03-13T02:19:49.785Z,3.00
2019-03-13T02:22:17.330Z,3.10
2019-03-13T02:24:44.565Z,3.10
2019-03-13T02:27:11.926Z,3.20
2019-03-13T02:29:39.195Z,3.10
2019-03-13T02:32:06.555Z,3.00
2019-03-13T02:34:33.826Z,3.10
2019-03-13T02:37:01.083Z,3.10
2019-03-13T02:39:28.326Z,3.20
2019-03-13T02:41:55.679Z,3.30
2019-03-13T02:44:22.949Z,3.40
2019-03-13T02:46:50.319Z,3.50
2019-03-13T02:49:17.680Z,3.50
2019-03-13T02:51:44.935Z,3.60
2019-03-13T02:54:12.171Z,3.70
2019-03-13T02:56:39.428Z,3.80
2019-03-13T02:59:06.897Z,3.70
2019-03-13T03:01:42.753Z,3.80
2019-03-13T03:04:11.054Z,3.90
2019-03-13T03:06:38.383Z,3.90
2019-03-13T03:09:07.485Z,3.80
2019-03-13T03:11:34.859Z,3.80
2019-03-13T03:14:02.362Z,3.80
2019-03-13T03:16:29.904Z,3.80
2019-03-13T03:18:57.359Z,3.80
2019-03-13T03:21:24.598Z,3.70
2019-03-13T03:23:52.068Z,3.80
2019-03-13T03:26:19.522Z,3.90
2019-03-13T03:28:46.901Z,3.90
2019-03-13T03:31:14.516Z,3.90
2019-03-13T03:33:44.215Z,3.90
2019-03-13T03:36:11.623Z,3.90
2019-03-13T03:38:38.989Z,4.00
2019-03-13T03:41:06.338Z,4.00
2019-03-13T03:43:39.875Z,4.00
2019-03-13T03:46:02.770Z,3.90
2019-03-13T03:48:30.032Z,4.00
2019-03-13T03:50:57.258Z,3.80
2019-03-13T03:53:24.512Z,3.70
2019-03-13T03:55:51.758Z,3.60
2019-03-13T03:58:19.042Z,3.70
2019-03-13T04:00:46.489Z,3.70
2019-03-13T04:03:13.917Z,3.50
2019-03-13T04:05:41.359Z,3.70
2019-03-13T04:08:08.714Z,3.70
2019-03-13T04:10:35.968Z,3.60
2019-03-13T04:13:03.216Z,3.50
2019-03-13T04:15:30.584Z,3.60
2019-03-13T04:17:57.938Z,3.70
2019-03-13T04:20:25.272Z,3.60
2019-03-13T04:22:52.546Z,3.60
2019-03-13T04:25:30.515Z,3.50
2019-03-13T04:27:57.781Z,3.50
2019-03-13T04:30:25.032Z,3.50
2019-03-13T04:32:52.513Z,3.60
2019-03-13T04:35:19.962Z,3.60
2019-03-13T04:37:47.438Z,3.20
2019-03-13T04:40:14.908Z,3.30
2019-03-13T04:42:42.271Z,3.40
2019-03-13T04:45:22.417Z,3.40
2019-03-13T04:47:49.756Z,3.30
2019-03-13T04:50:17.126Z,3.40
2019-03-13T04:52:44.464Z,3.60
2019-03-13T04:55:12.116Z,3.60
2019-03-13T04:57:39.366Z,3.60
2019-03-13T05:00:07.718Z,3.70
2019-03-13T05:02:35.023Z,3.60
2019-03-13T05:05:02.438Z,3.50
2019-03-13T05:07:29.810Z,3.40
2019-03-13T05:09:57.071Z,3.50
2019-03-13T05:12:24.317Z,3.60
2019-03-13T05:14:51.575Z,3.60
2019-03-13T05:17:18.827Z,3.40
2019-03-13T05:19:46.180Z,3.30
2019-03-13T05:22:13.561Z,3.50
2019-03-13T05:24:40.808Z,3.60
2019-03-13T05:27:08.159Z,3.50
2019-03-13T05:29:35.512Z,3.50
2019-03-13T05:32:02.742Z,3.40
2019-03-13T05:34:30.015Z,3.20
2019-03-13T05:36:57.275Z,3.20
2019-03-13T05:39:24.520Z,3.20
2019-03-13T05:41:51.978Z,3.20
2019-03-13T05:44:19.254Z,3.30
2019-03-13T05:46:46.490Z,3.40
2019-03-13T05:49:13.870Z,3.40
2019-03-13T05:51:41.126Z,3.80
2019-03-13T05:54:08.491Z,3.90
2019-03-13T05:56:35.847Z,4.00
2019-03-13T05:59:03.246Z,4.20
2019-03-13T06:01:30.482Z,4.30
2019-03-13T06:03:57.835Z,4.40
2019-03-13T06:06:25.097Z,4.50
2019-03-13T06:08:52.358Z,4.50
2019-03-13T06:11:19.737Z,4.60
2019-03-13T06:13:47.544Z,4.70
2019-03-13T06:16:15.088Z,5.00
2019-03-13T06:18:42.351Z,5.20
2019-03-13T06:21:09.599Z,5.50
2019-03-13T06:23:36.871Z,5.60
2019-03-13T06:26:04.157Z,5.50
2019-03-13T06:28:31.492Z,5.70
2019-03-13T06:30:58.743Z,5.90
2019-03-13T06:33:26.045Z,6.10
2019-03-13T06:35:53.300Z,6.20
2019-03-13T06:38:20.575Z,6.30
2019-03-13T06:40:48.047Z,6.40
2019-03-13T06:43:15.423Z,6.60
2019-03-13T06:45:42.771Z,6.60
2019-03-13T06:48:10.029Z,6.70
2019-03-13T06:50:37.373Z,6.90
2019-03-13T06:53:04.641Z,6.90
2019-03-13T06:55:31.999Z,7.00
2019-03-13T06:57:59.253Z,7.10
2019-03-13T07:00:46.111Z,7.40
2019-03-13T07:03:33.003Z,7.30
2019-03-13T07:06:25.703Z,7.30
2019-03-13T07:09:01.089Z,7.50
2019-03-13T07:11:35.230Z,7.50
2019-03-13T07:14:20.596Z,7.80
2019-03-13T07:17:22.811Z,7.70
2019-03-13T07:20:12.362Z,7.80
2019-03-13T07:23:04.746Z,7.70
2019-03-13T07:25:40.303Z,7.70
2019-03-13T07:28:15.554Z,7.80
2019-03-13T07:31:01.054Z,7.90
2019-03-13T07:33:50.463Z,8.20
2019-03-13T07:36:35.939Z,8.50
2019-03-13T07:39:27.391Z,8.40
2019-03-13T07:42:11.546Z,8.20
2019-03-13T07:45:01.279Z,8.10
2019-03-13T07:47:50.078Z,8.10
2019-03-13T07:50:30.115Z,8.50
2019-03-13T07:53:19.783Z,8.90
2019-03-13T07:56:06.648Z,8.80
2019-03-13T07:58:59.406Z,8.70
2019-03-13T08:01:45.291Z,9.20
2019-03-13T08:04:34.891Z,9.70
2019-03-13T08:07:30.765Z,9.80
2019-03-13T08:10:23.739Z,9.70
2019-03-13T08:13:10.595Z,9.50
2019-03-13T08:16:03.400Z,9.00
2019-03-13T08:18:47.396Z,8.80
2019-03-13T08:21:32.915Z,9.10
2019-03-13T08:24:18.871Z,9.80
2019-03-13T08:27:06.098Z,9.50
2019-03-13T08:29:51.566Z,9.10
2019-03-13T08:32:47.341Z,9.20
2019-03-13T08:35:32.847Z,9.20
2019-03-13T08:38:09.757Z,9.30
2019-03-13T08:40:59.410Z,9.60
2019-03-13T08:43:34.675Z,9.40
2019-03-13T08:46:21.535Z,9.40
2019-03-13T08:49:06.889Z,9.10
2019-03-13T08:52:02.566Z,8.80
2019-03-13T08:54:48.359Z,8.50
2019-03-13T08:57:41.719Z,8.30
2019-03-13T09:00:48.246Z,8.20
2019-03-13T09:03:36.019Z,8.30
2019-03-13T09:06:25.695Z,8.60
2019-03-13T09:09:11.194Z,8.90
2019-03-13T09:12:10.055Z,9.10
2019-03-13T09:14:44.490Z,9.30
2019-03-13T09:17:26.913Z,9.70
2019-03-13T09:20:16.977Z,9.60
2019-03-13T09:23:02.613Z,9.70
2019-03-13T09:25:42.622Z,9.70
2019-03-13T09:28:28.304Z,9.70
2019-03-13T09:31:12.860Z,9.90
2019-03-13T09:34:02.275Z,10.00
2019-03-13T09:36:40.842Z,9.80
2019-03-13T09:39:34.818Z,10.00
2019-03-13T09:42:21.704Z,9.70
2019-03-13T09:45:14.479Z,9.80
2019-03-13T09:48:01.339Z,9.90
2019-03-13T09:50:45.967Z,10.30
2019-03-13T09:53:30.002Z,10.50
2019-03-13T09:56:19.887Z,10.10
2019-03-13T09:59:05.502Z,9.70
2019-03-13T10:01:43.587Z,9.90
2019-03-13T10:04:29.663Z,9.80
2019-03-13T10:07:12.911Z,10.00
2019-03-13T10:09:47.741Z,10.10
2019-03-13T10:12:22.875Z,9.90
2019-03-13T10:15:04.034Z,9.60
2019-03-13T10:17:46.159Z,9.60
2019-03-13T10:20:26.297Z,9.60
2019-03-13T10:23:09.171Z,9.30
2019-03-13T10:25:45.474Z,9.40
2019-03-13T10:28:35.091Z,9.40
2019-03-13T10:31:14.082Z,9.60
2019-03-13T10:34:00.220Z,9.60
2019-03-13T10:36:32.958Z,9.90
2019-03-13T10:39:18.464Z,10.20
2019-03-13T10:41:54.283Z,10.60
2019-03-13T10:44:44.148Z,10.90
2019-03-13T10:47:29.645Z,10.50
2019-03-13T10:50:11.646Z,10.50
2019-03-13T10:53:01.031Z,10.20
2019-03-13T10:55:47.926Z,10.40
2019-03-13T10:58:34.883Z,10.30
2019-03-13T11:01:20.003Z,10.60
2019-03-13T11:04:06.720Z,10.90
2019-03-13T11:06:55.281Z,11.00
2019-03-13T11:09:57.463Z,11.10
2019-03-13T11:12:33.404Z,10.60
2019-03-13T11:15:06.179Z,10.10
2019-03-13T11:17:58.971Z,10.10
2019-03-13T11:20:51.651Z,10.00
2019-03-13T11:23:37.149Z,10.20
2019-03-13T11:26:20.886Z,10.40
2019-03-13T11:29:22.711Z,10.90
2019-03-13T11:32:11.351Z,11.10
2019-03-13T11:34:47.785Z,11.10
2019-03-13T11:37:37.363Z,10.60
2019-03-13T11:40:43.588Z,10.20
2019-03-13T11:43:30.126Z,10.10
2019-03-13T11:46:17.114Z,10.40
2019-03-13T11:49:12.594Z,10.80
2019-03-13T11:51:50.867Z,11.10
2019-03-13T11:54:37.150Z,11.30
2019-03-13T11:57:10.773Z,11.60
2019-03-13T11:59:57.685Z,11.20
2019-03-13T12:02:47.782Z,10.90
2019-03-13T12:05:37.407Z,10.70
2019-03-13T12:08:27.054Z,10.70
2019-03-13T12:11:04.699Z,10.40
2019-03-13T12:14:02.895Z,10.40
2019-03-13T12:16:38.623Z,10.30
2019-03-13T12:19:25.532Z,10.10
2019-03-13T12:22:04.155Z,10.00
2019-03-13T12:24:42.487Z,10.00
2019-03-13T12:27:39.112Z,10.10
2019-03-13T12:30:33.679Z,9.90
2019-03-13T12:33:07.911Z,9.50
2019-03-13T12:35:55.049Z,9.50
2019-03-13T12:38:30.828Z,9.60
2019-03-13T12:41:35.686Z,9.80
2019-03-13T12:44:37.555Z,9.80
2019-03-13T12:47:39.299Z,9.90
2019-03-13T12:50:23.090Z,9.70
2019-03-13T12:53:08.699Z,9.70
2019-03-13T12:55:59.779Z,9.90
2019-03-13T12:58:44.769Z,9.90
2019-03-13T13:01:40.891Z,9.70
2019-03-13T13:04:40.219Z,9.70
2019-03-13T13:07:32.702Z,9.80
2019-03-13T13:10:19.753Z,9.80
2019-03-13T13:13:25.150Z,9.80
2019-03-13T13:16:12.052Z,9.80
2019-03-13T13:18:54.304Z,9.80
2019-03-13T13:21:22.177Z,10.00
2019-03-13T13:23:49.410Z,10.10
2019-03-13T13:26:16.660Z,10.00
2019-03-13T13:28:43.902Z,10.10
2019-03-13T13:31:11.226Z,10.00
2019-03-13T13:33:38.481Z,9.70
2019-03-13T13:36:06.448Z,9.50
2019-03-13T13:38:33.683Z,9.60
2019-03-13T13:41:01.063Z,9.60
2019-03-13T13:43:28.315Z,9.80
2019-03-13T13:46:25.243Z,9.90
2019-03-13T13:48:52.524Z,10.00
2019-03-13T13:51:19.878Z,10.30
2019-03-13T13:53:47.154Z,10.70
2019-03-13T13:56:14.648Z,11.20
2019-03-13T13:58:42.091Z,11.50
2019-03-13T14:01:09.513Z,11.50
2019-03-13T14:03:36.868Z,11.70
2019-03-13T14:06:04.116Z,11.30
2019-03-13T14:08:31.613Z,11.00
2019-03-13T14:10:58.987Z,10.90
2019-03-13T14:13:26.247Z,10.90
2019-03-13T14:15:53.731Z,10.60
2019-03-13T14:18:21.081Z,10.40
2019-03-13T14:20:48.415Z,10.40
2019-03-13T14:23:16.670Z,10.50
2019-03-13T14:25:43.954Z,10.40
2019-03-13T14:28:11.318Z,10.10
2019-03-13T14:30:38.582Z,9.80
2019-03-13T14:33:06.030Z,9.90
2019-03-13T14:35:33.270Z,10.00
2019-03-13T14:38:00.523Z,9.90
2019-03-13T14:40:27.776Z,9.80
2019-03-13T14:42:55.279Z,9.80
2019-03-13T14:45:22.600Z,9.60
2019-03-13T14:47:49.959Z,9.60
2019-03-13T14:50:17.236Z,9.60
2019-03-13T14:52:44.559Z,9.70
2019-03-13T14:55:12.370Z,9.70
2019-03-13T14:57:39.630Z,9.90
2019-03-13T15:00:10.250Z,9.80
2019-03-13T15:02:37.515Z,9.50
2019-03-13T15:05:05.059Z,9.50
2019-03-13T15:07:32.335Z,9.70
2019-03-13T15:09:59.688Z,9.60
2019-03-13T15:12:26.955Z,9.60
2019-03-13T15:14:54.199Z,9.40
2019-03-13T15:17:21.486Z,9.40
2019-03-13T15:19:48.753Z,9.50
2019-03-13T15:22:16.029Z,9.40
2019-03-13T15:24:43.279Z,9.30
2019-03-13T15:27:10.619Z,9.30
2019-03-13T15:29:37.891Z,9.20
2019-03-13T15:32:05.155Z,9.20
2019-03-13T15:34:32.431Z,9.20
2019-03-13T15:36:59.798Z,9.10
2019-03-13T15:39:27.611Z,9.10
2019-03-13T15:41:54.851Z,9.00
2019-03-13T15:44:22.111Z,9.00
2019-03-13T15:46:49.366Z,8.90
2019-03-13T15:49:16.626Z,8.90
2019-03-13T15:51:44.010Z,9.20
2019-03-13T15:54:11.379Z,9.20
2019-03-13T15:56:38.730Z,8.90
2019-03-13T15:59:06.073Z,8.80
2019-03-13T16:01:33.427Z,8.70
2019-03-13T16:04:00.695Z,8.50
2019-03-13T16:06:27.960Z,8.40
2019-03-13T16:08:55.227Z,8.30
2019-03-13T16:11:22.566Z,8.20
2019-03-13T16:13:49.938Z,8.10
2019-03-13T16:16:17.294Z,7.90
2019-03-13T16:18:44.599Z,7.80
2019-03-13T16:21:11.972Z,7.90
2019-03-13T16:23:39.333Z,8.00
2019-03-13T16:26:06.588Z,8.20
2019-03-13T16:28:33.958Z,8.00
2019-03-13T16:31:01.604Z,7.90
2019-03-13T16:33:28.963Z,7.90
2019-03-13T16:35:56.427Z,7.90
2019-03-13T16:38:23.819Z,7.90
2019-03-13T16:40:51.155Z,7.80
2019-03-13T16:43:19.342Z,7.80
2019-03-13T16:45:46.715Z,7.80
2019-03-13T16:48:13.951Z,7.90
2019-03-13T16:50:41.326Z,7.90
2019-03-13T16:53:08.577Z,8.00
2019-03-13T16:55:35.882Z,8.00
2019-03-13T16:58:03.569Z,7.80
2019-03-13T17:00:31.043Z,7.70
2019-03-13T17:02:58.379Z,7.60
2019-03-13T17:05:25.751Z,7.30
2019-03-13T17:07:53.126Z,7.00
2019-03-13T17:10:20.406Z,6.70
2019-03-13T17:12:48.644Z,6.70
2019-03-13T17:15:17.688Z,6.50
2019-03-13T17:17:45.015Z,6.50
2019-03-13T17:20:14.763Z,6.40
2019-03-13T17:22:43.298Z,6.40
2019-03-13T17:25:12.436Z,6.50
2019-03-13T17:27:39.799Z,6.40
2019-03-13T17:30:09.799Z,6.40
2019-03-13T17:32:37.044Z,6.40
2019-03-13T17:35:04.815Z,6.30
2019-03-13T17:37:34.467Z,6.20
2019-03-13T17:40:01.843Z,5.90
2019-03-13T17:42:29.110Z,5.70
2019-03-13T17:44:56.590Z,5.60
2019-03-13T17:47:23.834Z,5.50
2019-03-13T17:49:51.091Z,5.30
2019-03-13T17:52:18.439Z,5.40
2019-03-13T17:54:45.714Z,5.30
2019-03-13T17:57:12.987Z,5.20
2019-03-13T17:59:40.264Z,5.00
2019-03-13T18:02:07.602Z,4.80
2019-03-13T18:04:34.865Z,4.40
2019-03-13T18:07:02.230Z,4.50
2019-03-13T18:09:29.488Z,4.50
2019-03-13T18:11:56.763Z,4.50
2019-03-13T18:14:24.141Z,4.60
2019-03-13T18:16:51.492Z,4.80
2019-03-13T18:19:18.734Z,4.80
2019-03-13T18:21:46.015Z,4.90
2019-03-13T18:24:13.358Z,4.40
2019-03-13T18:26:40.619Z,4.20
2019-03-13T18:29:07.983Z,4.60
2019-03-13T18:31:35.258Z,4.60
2019-03-13T18:34:02.641Z,4.70
2019-03-13T18:36:29.907Z,4.70
2019-03-13T18:38:57.390Z,4.70
2019-03-13T18:41:24.750Z,4.70
2019-03-13T18:43:52.110Z,4.70
2019-03-13T18:46:19.682Z,4.70
2019-03-13T18:48:47.207Z,4.70
2019-03-13T18:51:14.639Z,4.70
2019-03-13T18:53:41.874Z,4.80
2019-03-13T18:56:09.141Z,4.80
2019-03-13T18:58:36.491Z,4.80
2019-03-13T19:01:04.063Z,4.80
2019-03-13T19:03:31.323Z,4.90
2019-03-13T19:05:58.580Z,4.70
2019-03-13T19:08:27.255Z,4.60
2019-03-13T19:10:54.701Z,4.60
2019-03-13T19:13:21.955Z,4.60
2019-03-13T19:15:49.343Z,4.40
2019-03-13T19:18:16.760Z,4.30
2019-03-13T19:20:44.059Z,4.30
2019-03-13T19:23:14.059Z,4.10
2019-03-13T19:25:40.654Z,3.90
2019-03-13T19:28:07.911Z,3.80
2019-03-13T19:30:37.719Z,3.70
2019-03-13T19:33:04.729Z,3.80
2019-03-13T19:35:32.275Z,3.80
2019-03-13T19:38:00.227Z,3.70
2019-03-13T19:40:27.597Z,4.00
2019-03-13T19:42:55.044Z,4.00
2019-03-13T19:45:31.215Z,4.00
2019-03-13T19:48:01.172Z,3.90
2019-03-13T19:50:28.479Z,3.90
2019-03-13T19:52:55.956Z,3.90
2019-03-13T19:55:23.314Z,3.90
2019-03-13T19:57:50.910Z,3.80
2019-03-13T20:00:19.531Z,3.70
2019-03-13T20:02:59.124Z,3.70
2019-03-13T20:05:16.274Z,3.60
2019-03-13T20:07:43.712Z,3.30
2019-03-13T20:10:14.563Z,3.20
2019-03-13T20:12:42.015Z,3.20
2019-03-13T20:15:11.003Z,3.10
2019-03-13T20:17:41.615Z,3.00
2019-03-13T20:20:09.239Z,3.20
2019-03-13T20:22:36.761Z,3.20
2019-03-13T20:25:04.545Z,3.10
2019-03-13T20:27:31.902Z,3.00
2019-03-13T20:29:59.182Z,3.00
2019-03-13T20:32:26.547Z,2.90
2019-03-13T20:34:53.827Z,2.90
2019-03-13T20:37:21.207Z,3.00
2019-03-13T20:39:48.464Z,3.10
2019-03-13T20:42:15.840Z,3.10
2019-03-13T20:44:43.197Z,3.10
2019-03-13T20:47:10.538Z,3.10
2019-03-13T20:49:37.820Z,3.30
2019-03-13T20:52:05.098Z,3.50
2019-03-13T20:54:32.495Z,3.60
2019-03-13T20:56:59.774Z,3.60
2019-03-13T20:59:27.027Z,3.30
2019-03-13T21:01:54.283Z,3.20
2019-03-13T21:04:21.754Z,3.00
2019-03-13T21:06:49.134Z,3.00
2019-03-13T21:09:24.399Z,3.10
2019-03-13T21:12:11.648Z,3.00
2019-03-13T21:14:39.272Z,3.10
2019-03-13T21:17:06.527Z,3.30
2019-03-13T21:19:33.886Z,3.30
2019-03-13T21:22:04.374Z,3.30
2019-03-13T21:24:30.326Z,3.30
2019-03-13T21:26:57.627Z,3.20
2019-03-13T21:29:24.904Z,3.30
2019-03-13T21:31:52.155Z,3.30
2019-03-13T21:34:19.615Z,3.20
2019-03-13T21:36:46.903Z,3.30
2019-03-13T21:39:14.191Z,3.30
2019-03-13T21:41:41.546Z,3.30
2019-03-13T21:44:08.827Z,3.40
2019-03-13T21:46:36.171Z,3.40
2019-03-13T21:49:03.435Z,3.40
2019-03-13T21:51:30.805Z,3.60
2019-03-13T21:53:58.294Z,3.90
2019-03-13T21:56:25.572Z,4.20
2019-03-13T21:58:52.937Z,4.40
2019-03-13T22:01:20.719Z,4.70
2019-03-13T22:03:48.412Z,4.80
2019-03-13T22:06:27.635Z,4.80
2019-03-13T22:08:44.842Z,5.00
2019-03-13T22:11:12.219Z,5.10
2019-03-13T22:13:39.467Z,5.20
2019-03-13T22:16:06.798Z,5.20
2019-03-13T22:18:34.058Z,5.30
2019-03-13T22:21:01.409Z,5.30
2019-03-13T22:23:28.679Z,5.30
2019-03-13T22:25:55.923Z,5.20
2019-03-13T22:28:23.226Z,5.20
2019-03-13T22:30:50.595Z,5.40
2019-03-13T22:33:17.962Z,5.40
2019-03-13T22:35:45.411Z,5.50
2019-03-13T22:38:12.751Z,5.40
2019-03-13T22:40:40.003Z,5.40
2019-03-13T22:43:07.246Z,5.30
2019-03-13T22:45:34.598Z,5.30
2019-03-13T22:48:01.967Z,5.50
2019-03-13T22:50:29.339Z,5.60
2019-03-13T22:52:56.571Z,5.60
2019-03-13T22:55:24.032Z,5.70
2019-03-13T22:57:51.271Z,5.70
2019-03-13T23:00:58.051Z,5.70
2019-03-13T23:03:26.993Z,5.60
2019-03-13T23:05:54.618Z,5.70
2019-03-13T23:08:22.074Z,5.70
2019-03-13T23:10:49.534Z,5.80
2019-03-13T23:13:17.563Z,5.70
2019-03-13T23:15:45.202Z,5.90
2019-03-13T23:18:12.446Z,5.80
2019-03-13T23:20:39.775Z,5.80
2019-03-13T23:23:07.030Z,5.70
2019-03-13T23:25:34.388Z,5.60
2019-03-13T23:28:01.636Z,5.50
2019-03-13T23:30:29.018Z,5.40
2019-03-13T23:32:56.386Z,5.20
2019-03-13T23:35:23.744Z,5.10
2019-03-13T23:37:51.095Z,5.10
2019-03-13T23:40:18.342Z,5.00
2019-03-13T23:42:45.716Z,4.90
2019-03-13T23:45:13.080Z,4.90
2019-03-13T23:47:40.342Z,4.80
2019-03-13T23:50:07.888Z,4.80
2019-03-13T23:52:47.716Z,4.80
2019-03-13T23:55:14.966Z,4.70
2019-03-13T23:57:42.200Z,4.90
